sensor_id;sensor_type;location;lat;lon;timestamp;temperature;humidity
22738;DHT22;11536;50.860;4.286;2023-02-11T00:00:31;7.40;99.90
22738;DHT22;11536;50.860;4.286;2023-02-11T00:02:57;7.40;99.90
22738;DHT22;11536;50.860;4.286;2023-02-11T00:05:22;7.40;99.90
22738;DHT22;11536;50.860;4.286;2023-02-11T00:07:48;7.40;99.90
22738;DHT22;11536;50.860;4.286;2023-02-11T00:10:13;7.30;99.90
22738;DHT22;11536;50.860;4.286;2023-02-11T00:12:39;7.30;99.90
22738;DHT22;11536;50.860;4.286;2023-02-11T00:15:06;7.30;99.90
22738;DHT22;11536;50.860;4.286;2023-02-11T00:17:32;7.30;99.90
22738;DHT22;11536;50.860;4.286;2023-02-11T00:19:58;7.30;99.90
22738;DHT22;11536;50.860;4.286;2023-02-11T00:22:27;7.20;99.90
22738;DHT22;11536;50.860;4.286;2023-02-11T00:24:52;7.20;99.90
22738;DHT22;11536;50.860;4.286;2023-02-11T00:27:18;7.20;99.90
22738;DHT22;11536;50.860;4.286;2023-02-11T00:29:44;7.10;99.90
22738;DHT22;11536;50.860;4.286;2023-02-11T00:32:09;7.20;99.90
22738;DHT22;11536;50.860;4.286;2023-02-11T00:34:36;7.10;99.90
22738;DHT22;11536;50.860;4.286;2023-02-11T00:37:02;7.10;99.90
22738;DHT22;11536;50.860;4.286;2023-02-11T00:39:28;7.10;99.90
22738;DHT22;11536;50.860;4.286;2023-02-11T00:41:54;7.10;99.90
22738;DHT22;11536;50.860;4.286;2023-02-11T00:44:20;7.10;99.90
22738;DHT22;11536;50.860;4.286;2023-02-11T00:46:45;7.10;99.90
22738;DHT22;11536;50.860;4.286;2023-02-11T00:49:11;7.10;99.90
22738;DHT22;11536;50.860;4.286;2023-02-11T00:51:37;7.10;99.90
22738;DHT22;11536;50.860;4.286;2023-02-11T00:54:03;7.00;99.90
22738;DHT22;11536;50.860;4.286;2023-02-11T00:56:28;7.00;99.90
22738;DHT22;11536;50.860;4.286;2023-02-11T00:58:54;7.00;99.90
22738;DHT22;11536;50.860;4.286;2023-02-11T01:01:20;7.00;99.90
22738;DHT22;11536;50.860;4.286;2023-02-11T01:03:45;7.00;99.90
22738;DHT22;11536;50.860;4.286;2023-02-11T01:06:11;7.00;99.90
22738;DHT22;11536;50.860;4.286;2023-02-11T01:08:38;7.00;99.90
22738;DHT22;11536;50.860;4.286;2023-02-11T01:11:06;7.00;99.90
22738;DHT22;11536;50.860;4.286;2023-02-11T01:13:34;7.00;99.90
22738;DHT22;11536;50.860;4.286;2023-02-11T01:16:02;7.00;99.90
22738;DHT22;11536;50.860;4.286;2023-02-11T01:18:27;7.00;99.90
22738;DHT22;11536;50.860;4.286;2023-02-11T01:20:53;7.00;99.90
22738;DHT22;11536;50.860;4.286;2023-02-11T01:23:19;7.00;99.90
22738;DHT22;11536;50.860;4.286;2023-02-11T01:25:45;7.00;99.90
22738;DHT22;11536;50.860;4.286;2023-02-11T01:28:18;7.00;99.90
22738;DHT22;11536;50.860;4.286;2023-02-11T01:30:44;7.00;99.90
22738;DHT22;11536;50.860;4.286;2023-02-11T01:33:10;6.90;99.90
22738;DHT22;11536;50.860;4.286;2023-02-11T01:35:37;6.90;99.90
22738;DHT22;11536;50.860;4.286;2023-02-11T01:38:03;6.90;99.90
22738;DHT22;11536;50.860;4.286;2023-02-11T01:40:28;6.90;99.90
22738;DHT22;11536;50.860;4.286;2023-02-11T01:42:54;6.90;99.90
22738;DHT22;11536;50.860;4.286;2023-02-11T01:48:16;6.90;99.90
22738;DHT22;11536;50.860;4.286;2023-02-11T01:50:43;6.90;99.90
22738;DHT22;11536;50.860;4.286;2023-02-11T01:53:10;6.90;99.90
22738;DHT22;11536;50.860;4.286;2023-02-11T01:55:55;6.90;99.90
22738;DHT22;11536;50.860;4.286;2023-02-11T01:58:41;6.90;99.90
22738;DHT22;11536;50.860;4.286;2023-02-11T02:01:10;6.90;99.90
22738;DHT22;11536;50.860;4.286;2023-02-11T02:03:38;6.90;99.90
22738;DHT22;11536;50.860;4.286;2023-02-11T02:06:23;6.90;99.90
22738;DHT22;11536;50.860;4.286;2023-02-11T02:11:25;6.90;99.90
22738;DHT22;11536;50.860;4.286;2023-02-11T02:13:51;6.90;99.90
22738;DHT22;11536;50.860;4.286;2023-02-11T02:16:18;7.00;99.90
22738;DHT22;11536;50.860;4.286;2023-02-11T02:24:54;7.00;99.90
22738;DHT22;11536;50.860;4.286;2023-02-11T02:38:07;7.00;99.90
22738;DHT22;11536;50.860;4.286;2023-02-11T02:40:44;7.00;99.90
22738;DHT22;11536;50.860;4.286;2023-02-11T02:43:12;7.10;99.90
22738;DHT22;11536;50.860;4.286;2023-02-11T02:45:38;7.10;99.90
22738;DHT22;11536;50.860;4.286;2023-02-11T02:48:03;7.10;99.90
22738;DHT22;11536;50.860;4.286;2023-02-11T02:50:34;7.10;99.90
22738;DHT22;11536;50.860;4.286;2023-02-11T02:53:17;7.10;99.90
22738;DHT22;11536;50.860;4.286;2023-02-11T02:56:15;7.10;99.90
22738;DHT22;11536;50.860;4.286;2023-02-11T03:04:10;7.10;99.90
22738;DHT22;11536;50.860;4.286;2023-02-11T03:09:50;7.10;99.90
22738;DHT22;11536;50.860;4.286;2023-02-11T03:12:19;7.10;99.90
22738;DHT22;11536;50.860;4.286;2023-02-11T03:14:45;7.10;99.90
22738;DHT22;11536;50.860;4.286;2023-02-11T03:17:13;7.20;99.90
22738;DHT22;11536;50.860;4.286;2023-02-11T03:19:43;7.20;99.90
22738;DHT22;11536;50.860;4.286;2023-02-11T03:22:15;7.20;99.90
22738;DHT22;11536;50.860;4.286;2023-02-11T03:24:41;7.20;99.90
22738;DHT22;11536;50.860;4.286;2023-02-11T03:27:15;7.20;99.90
22738;DHT22;11536;50.860;4.286;2023-02-11T03:30:19;7.20;99.90
22738;DHT22;11536;50.860;4.286;2023-02-11T03:32:51;7.20;99.90
22738;DHT22;11536;50.860;4.286;2023-02-11T03:35:20;7.20;99.90
22738;DHT22;11536;50.860;4.286;2023-02-11T03:37:58;7.20;99.90
22738;DHT22;11536;50.860;4.286;2023-02-11T03:40:28;7.20;99.90
22738;DHT22;11536;50.860;4.286;2023-02-11T03:43:15;7.20;99.90
22738;DHT22;11536;50.860;4.286;2023-02-11T03:45:43;7.20;99.90
22738;DHT22;11536;50.860;4.286;2023-02-11T03:48:30;7.20;99.90
22738;DHT22;11536;50.860;4.286;2023-02-11T03:50:57;7.30;99.90
22738;DHT22;11536;50.860;4.286;2023-02-11T03:53:24;7.30;99.90
22738;DHT22;11536;50.860;4.286;2023-02-11T03:55:53;7.30;99.90
22738;DHT22;11536;50.860;4.286;2023-02-11T03:58:19;7.30;99.90
22738;DHT22;11536;50.860;4.286;2023-02-11T04:00:45;7.30;99.90
22738;DHT22;11536;50.860;4.286;2023-02-11T04:03:11;7.30;99.90
22738;DHT22;11536;50.860;4.286;2023-02-11T04:05:37;7.40;99.90
22738;DHT22;11536;50.860;4.286;2023-02-11T04:08:03;7.30;99.90
22738;DHT22;11536;50.860;4.286;2023-02-11T04:10:29;7.30;99.90
22738;DHT22;11536;50.860;4.286;2023-02-11T04:12:55;7.40;99.90
22738;DHT22;11536;50.860;4.286;2023-02-11T04:15:21;7.40;99.90
22738;DHT22;11536;50.860;4.286;2023-02-11T04:17:46;7.40;99.90
22738;DHT22;11536;50.860;4.286;2023-02-11T04:20:12;7.40;99.90
22738;DHT22;11536;50.860;4.286;2023-02-11T04:22:37;7.40;99.90
22738;DHT22;11536;50.860;4.286;2023-02-11T04:25:05;7.40;99.90
22738;DHT22;11536;50.860;4.286;2023-02-11T04:27:30;7.40;99.90
22738;DHT22;11536;50.860;4.286;2023-02-11T04:29:56;7.40;99.90
22738;DHT22;11536;50.860;4.286;2023-02-11T04:32:22;7.40;99.90
22738;DHT22;11536;50.860;4.286;2023-02-11T04:34:48;7.40;99.90
22738;DHT22;11536;50.860;4.286;2023-02-11T04:37:13;7.40;99.90
22738;DHT22;11536;50.860;4.286;2023-02-11T04:39:39;7.40;99.90
22738;DHT22;11536;50.860;4.286;2023-02-11T04:42:05;7.40;99.90
22738;DHT22;11536;50.860;4.286;2023-02-11T04:44:31;7.50;99.90
22738;DHT22;11536;50.860;4.286;2023-02-11T04:46:57;7.50;99.90
22738;DHT22;11536;50.860;4.286;2023-02-11T04:49:23;7.50;99.90
22738;DHT22;11536;50.860;4.286;2023-02-11T04:51:48;7.50;99.90
22738;DHT22;11536;50.860;4.286;2023-02-11T04:54:14;7.50;99.90
22738;DHT22;11536;50.860;4.286;2023-02-11T04:56:40;7.50;99.90
22738;DHT22;11536;50.860;4.286;2023-02-11T04:59:06;7.50;99.90
22738;DHT22;11536;50.860;4.286;2023-02-11T05:01:32;7.50;99.90
22738;DHT22;11536;50.860;4.286;2023-02-11T05:03:57;7.50;99.90
22738;DHT22;11536;50.860;4.286;2023-02-11T05:06:23;7.50;99.90
22738;DHT22;11536;50.860;4.286;2023-02-11T05:08:48;7.60;99.90
22738;DHT22;11536;50.860;4.286;2023-02-11T05:11:17;7.50;99.90
22738;DHT22;11536;50.860;4.286;2023-02-11T05:13:43;7.50;99.90
22738;DHT22;11536;50.860;4.286;2023-02-11T05:16:09;7.50;99.90
22738;DHT22;11536;50.860;4.286;2023-02-11T05:18:37;7.50;99.90
22738;DHT22;11536;50.860;4.286;2023-02-11T05:21:11;7.60;99.90
22738;DHT22;11536;50.860;4.286;2023-02-11T05:23:37;7.60;99.90
22738;DHT22;11536;50.860;4.286;2023-02-11T05:26:03;7.60;99.90
22738;DHT22;11536;50.860;4.286;2023-02-11T05:28:30;7.60;99.90
22738;DHT22;11536;50.860;4.286;2023-02-11T05:30:56;7.60;99.90
22738;DHT22;11536;50.860;4.286;2023-02-11T05:33:22;7.50;99.90
22738;DHT22;11536;50.860;4.286;2023-02-11T05:35:48;7.50;99.90
22738;DHT22;11536;50.860;4.286;2023-02-11T05:38:13;7.50;99.90
22738;DHT22;11536;50.860;4.286;2023-02-11T05:40:39;7.50;99.90
22738;DHT22;11536;50.860;4.286;2023-02-11T05:43:05;7.50;99.90
22738;DHT22;11536;50.860;4.286;2023-02-11T05:45:31;7.60;99.90
22738;DHT22;11536;50.860;4.286;2023-02-11T05:47:57;7.50;99.90
22738;DHT22;11536;50.860;4.286;2023-02-11T05:50:23;7.60;99.90
22738;DHT22;11536;50.860;4.286;2023-02-11T05:52:48;7.60;99.90
22738;DHT22;11536;50.860;4.286;2023-02-11T05:55:14;7.50;99.90
22738;DHT22;11536;50.860;4.286;2023-02-11T05:57:40;7.60;99.90
22738;DHT22;11536;50.860;4.286;2023-02-11T06:00:06;7.60;99.90
22738;DHT22;11536;50.860;4.286;2023-02-11T06:02:34;7.60;99.90
22738;DHT22;11536;50.860;4.286;2023-02-11T06:04:59;7.60;99.90
22738;DHT22;11536;50.860;4.286;2023-02-11T06:07:25;7.60;99.90
22738;DHT22;11536;50.860;4.286;2023-02-11T06:09:51;7.60;99.90
22738;DHT22;11536;50.860;4.286;2023-02-11T06:12:17;7.60;99.90
22738;DHT22;11536;50.860;4.286;2023-02-11T06:14:42;7.60;99.90
22738;DHT22;11536;50.860;4.286;2023-02-11T06:17:08;7.60;99.90
22738;DHT22;11536;50.860;4.286;2023-02-11T06:19:33;7.60;99.90
22738;DHT22;11536;50.860;4.286;2023-02-11T06:21:59;7.60;99.90
22738;DHT22;11536;50.860;4.286;2023-02-11T06:24:25;7.60;99.90
22738;DHT22;11536;50.860;4.286;2023-02-11T06:26:50;7.70;99.90
22738;DHT22;11536;50.860;4.286;2023-02-11T06:29:16;7.60;99.90
22738;DHT22;11536;50.860;4.286;2023-02-11T06:31:41;7.60;99.90
22738;DHT22;11536;50.860;4.286;2023-02-11T06:34:08;7.60;99.90
22738;DHT22;11536;50.860;4.286;2023-02-11T06:36:35;7.70;99.90
22738;DHT22;11536;50.860;4.286;2023-02-11T06:39:02;7.70;99.90
22738;DHT22;11536;50.860;4.286;2023-02-11T06:41:28;7.70;99.90
22738;DHT22;11536;50.860;4.286;2023-02-11T06:43:53;7.70;99.90
22738;DHT22;11536;50.860;4.286;2023-02-11T06:46:19;7.70;99.90
22738;DHT22;11536;50.860;4.286;2023-02-11T06:48:44;7.70;99.90
22738;DHT22;11536;50.860;4.286;2023-02-11T06:51:12;7.70;99.90
22738;DHT22;11536;50.860;4.286;2023-02-11T06:53:43;7.70;99.90
22738;DHT22;11536;50.860;4.286;2023-02-11T06:56:15;7.70;99.90
22738;DHT22;11536;50.860;4.286;2023-02-11T06:58:41;7.70;99.90
22738;DHT22;11536;50.860;4.286;2023-02-11T07:01:10;7.80;99.90
22738;DHT22;11536;50.860;4.286;2023-02-11T07:03:38;7.70;99.90
22738;DHT22;11536;50.860;4.286;2023-02-11T07:06:06;7.70;99.90
22738;DHT22;11536;50.860;4.286;2023-02-11T07:08:33;7.70;99.90
22738;DHT22;11536;50.860;4.286;2023-02-11T07:10:59;7.70;99.90
22738;DHT22;11536;50.860;4.286;2023-02-11T07:13:25;7.80;99.90
22738;DHT22;11536;50.860;4.286;2023-02-11T07:15:50;7.80;99.90
22738;DHT22;11536;50.860;4.286;2023-02-11T07:18:16;7.80;99.90
22738;DHT22;11536;50.860;4.286;2023-02-11T07:20:42;7.80;99.90
22738;DHT22;11536;50.860;4.286;2023-02-11T07:23:08;7.80;99.90
22738;DHT22;11536;50.860;4.286;2023-02-11T07:25:34;7.80;99.90
22738;DHT22;11536;50.860;4.286;2023-02-11T07:28:00;7.80;99.90
22738;DHT22;11536;50.860;4.286;2023-02-11T07:30:27;7.80;99.90
22738;DHT22;11536;50.860;4.286;2023-02-11T07:32:52;7.80;99.90
22738;DHT22;11536;50.860;4.286;2023-02-11T07:35:18;7.90;99.90
22738;DHT22;11536;50.860;4.286;2023-02-11T07:37:43;7.90;99.90
22738;DHT22;11536;50.860;4.286;2023-02-11T07:40:09;7.90;99.90
22738;DHT22;11536;50.860;4.286;2023-02-11T07:42:35;7.90;99.90
22738;DHT22;11536;50.860;4.286;2023-02-11T07:45:01;7.90;99.90
22738;DHT22;11536;50.860;4.286;2023-02-11T07:47:27;7.90;99.90
22738;DHT22;11536;50.860;4.286;2023-02-11T07:49:52;7.90;99.90
22738;DHT22;11536;50.860;4.286;2023-02-11T07:52:18;7.90;99.90
22738;DHT22;11536;50.860;4.286;2023-02-11T07:54:44;7.90;99.90
22738;DHT22;11536;50.860;4.286;2023-02-11T07:57:10;8.00;99.90
22738;DHT22;11536;50.860;4.286;2023-02-11T07:59:36;8.00;99.90
22738;DHT22;11536;50.860;4.286;2023-02-11T08:02:02;8.00;99.90
22738;DHT22;11536;50.860;4.286;2023-02-11T08:04:27;7.90;99.90
22738;DHT22;11536;50.860;4.286;2023-02-11T08:06:53;8.00;99.90
22738;DHT22;11536;50.860;4.286;2023-02-11T08:09:21;8.00;99.90
22738;DHT22;11536;50.860;4.286;2023-02-11T08:11:47;8.00;99.90
22738;DHT22;11536;50.860;4.286;2023-02-11T08:14:13;8.00;99.90
22738;DHT22;11536;50.860;4.286;2023-02-11T08:16:39;8.00;99.90
22738;DHT22;11536;50.860;4.286;2023-02-11T08:19:12;8.10;99.90
22738;DHT22;11536;50.860;4.286;2023-02-11T08:21:38;8.10;99.90
22738;DHT22;11536;50.860;4.286;2023-02-11T08:24:05;8.10;99.90
22738;DHT22;11536;50.860;4.286;2023-02-11T08:26:32;8.10;99.90
22738;DHT22;11536;50.860;4.286;2023-02-11T08:29:01;8.10;99.90
22738;DHT22;11536;50.860;4.286;2023-02-11T08:31:29;8.10;99.90
22738;DHT22;11536;50.860;4.286;2023-02-11T08:33:55;8.10;99.90
22738;DHT22;11536;50.860;4.286;2023-02-11T08:36:33;8.10;99.90
22738;DHT22;11536;50.860;4.286;2023-02-11T08:39:11;8.10;99.90
22738;DHT22;11536;50.860;4.286;2023-02-11T08:41:38;8.10;99.90
22738;DHT22;11536;50.860;4.286;2023-02-11T08:44:04;8.20;99.90
22738;DHT22;11536;50.860;4.286;2023-02-11T08:46:30;8.30;99.90
22738;DHT22;11536;50.860;4.286;2023-02-11T08:48:55;8.20;99.90
22738;DHT22;11536;50.860;4.286;2023-02-11T08:51:25;8.20;99.90
22738;DHT22;11536;50.860;4.286;2023-02-11T08:53:52;8.20;99.90
22738;DHT22;11536;50.860;4.286;2023-02-11T08:56:19;8.20;99.90
22738;DHT22;11536;50.860;4.286;2023-02-11T08:58:46;8.20;99.90
22738;DHT22;11536;50.860;4.286;2023-02-11T09:01:17;8.30;99.90
22738;DHT22;11536;50.860;4.286;2023-02-11T09:03:43;8.20;99.90
22738;DHT22;11536;50.860;4.286;2023-02-11T09:06:10;8.30;99.90
22738;DHT22;11536;50.860;4.286;2023-02-11T09:08:40;8.30;99.90
22738;DHT22;11536;50.860;4.286;2023-02-11T09:11:06;8.30;99.90
22738;DHT22;11536;50.860;4.286;2023-02-11T09:13:32;8.30;99.90
22738;DHT22;11536;50.860;4.286;2023-02-11T09:15:59;8.30;99.90
22738;DHT22;11536;50.860;4.286;2023-02-11T09:18:25;8.40;99.90
22738;DHT22;11536;50.860;4.286;2023-02-11T09:20:50;8.40;99.90
22738;DHT22;11536;50.860;4.286;2023-02-11T09:23:16;8.40;99.90
22738;DHT22;11536;50.860;4.286;2023-02-11T09:25:42;8.40;99.90
22738;DHT22;11536;50.860;4.286;2023-02-11T09:28:08;8.40;99.90
22738;DHT22;11536;50.860;4.286;2023-02-11T09:30:35;8.40;99.90
22738;DHT22;11536;50.860;4.286;2023-02-11T09:33:01;8.40;99.90
22738;DHT22;11536;50.860;4.286;2023-02-11T09:35:27;8.40;99.90
22738;DHT22;11536;50.860;4.286;2023-02-11T09:37:53;8.50;99.90
22738;DHT22;11536;50.860;4.286;2023-02-11T09:40:18;8.50;99.90
22738;DHT22;11536;50.860;4.286;2023-02-11T09:45:14;8.50;99.90
22738;DHT22;11536;50.860;4.286;2023-02-11T09:48:15;8.60;99.90
22738;DHT22;11536;50.860;4.286;2023-02-11T09:50:48;8.60;99.90
22738;DHT22;11536;50.860;4.286;2023-02-11T09:53:23;8.60;99.90
22738;DHT22;11536;50.860;4.286;2023-02-11T09:55:55;8.60;99.90
22738;DHT22;11536;50.860;4.286;2023-02-11T10:23:24;8.80;99.90
22738;DHT22;11536;50.860;4.286;2023-02-11T10:25:52;8.80;99.90
22738;DHT22;11536;50.860;4.286;2023-02-11T10:28:22;8.80;99.90
22738;DHT22;11536;50.860;4.286;2023-02-11T10:31:02;8.80;99.90
22738;DHT22;11536;50.860;4.286;2023-02-11T10:33:40;8.90;99.90
22738;DHT22;11536;50.860;4.286;2023-02-11T10:36:10;8.90;99.90
22738;DHT22;11536;50.860;4.286;2023-02-11T10:38:36;8.90;99.90
22738;DHT22;11536;50.860;4.286;2023-02-11T10:41:02;9.00;99.90
22738;DHT22;11536;50.860;4.286;2023-02-11T10:43:29;9.00;99.90
22738;DHT22;11536;50.860;4.286;2023-02-11T10:45:56;9.00;99.90
22738;DHT22;11536;50.860;4.286;2023-02-11T10:48:42;9.00;99.90
22738;DHT22;11536;50.860;4.286;2023-02-11T10:51:26;9.00;99.90
22738;DHT22;11536;50.860;4.286;2023-02-11T10:56:41;9.00;99.90
22738;DHT22;11536;50.860;4.286;2023-02-11T10:59:26;9.10;99.90
22738;DHT22;11536;50.860;4.286;2023-02-11T11:01:55;9.10;99.90
22738;DHT22;11536;50.860;4.286;2023-02-11T11:04:34;9.10;99.90
22738;DHT22;11536;50.860;4.286;2023-02-11T11:07:22;9.10;99.90
22738;DHT22;11536;50.860;4.286;2023-02-11T11:09:54;9.10;99.90
22738;DHT22;11536;50.860;4.286;2023-02-11T11:12:33;9.10;99.90
22738;DHT22;11536;50.860;4.286;2023-02-11T11:15:21;9.10;99.90
22738;DHT22;11536;50.860;4.286;2023-02-11T11:20:34;9.20;99.90
22738;DHT22;11536;50.860;4.286;2023-02-11T11:23:16;9.20;99.90
22738;DHT22;11536;50.860;4.286;2023-02-11T11:25:44;9.20;99.90
22738;DHT22;11536;50.860;4.286;2023-02-11T11:28:24;9.20;99.90
22738;DHT22;11536;50.860;4.286;2023-02-11T11:30:52;9.20;99.90
22738;DHT22;11536;50.860;4.286;2023-02-11T11:33:30;9.20;99.90
22738;DHT22;11536;50.860;4.286;2023-02-11T11:36:42;9.20;99.90
22738;DHT22;11536;50.860;4.286;2023-02-11T11:38:52;9.30;99.90
22738;DHT22;11536;50.860;4.286;2023-02-11T11:41:32;9.30;99.90
22738;DHT22;11536;50.860;4.286;2023-02-11T11:46:52;9.30;99.90
22738;DHT22;11536;50.860;4.286;2023-02-11T11:49:39;9.40;99.90
22738;DHT22;11536;50.860;4.286;2023-02-11T11:55:13;9.40;99.90
22738;DHT22;11536;50.860;4.286;2023-02-11T11:57:40;9.40;99.90
22738;DHT22;11536;50.860;4.286;2023-02-11T12:00:20;9.40;99.90
22738;DHT22;11536;50.860;4.286;2023-02-11T12:14:40;9.50;99.90
22738;DHT22;11536;50.860;4.286;2023-02-11T12:25:32;9.50;99.90
22738;DHT22;11536;50.860;4.286;2023-02-11T12:36:38;9.50;99.90
22738;DHT22;11536;50.860;4.286;2023-02-11T12:42:32;9.50;99.90
22738;DHT22;11536;50.860;4.286;2023-02-11T12:48:10;9.60;99.90
22738;DHT22;11536;50.860;4.286;2023-02-11T12:55:59;9.60;99.90
22738;DHT22;11536;50.860;4.286;2023-02-11T12:58:30;9.60;99.90
22738;DHT22;11536;50.860;4.286;2023-02-11T13:01:07;9.60;99.90
22738;DHT22;11536;50.860;4.286;2023-02-11T13:03:38;9.70;99.90
22738;DHT22;11536;50.860;4.286;2023-02-11T13:06:08;9.70;99.90
22738;DHT22;11536;50.860;4.286;2023-02-11T13:08:45;9.70;99.90
22738;DHT22;11536;50.860;4.286;2023-02-11T13:11:26;9.70;99.90
22738;DHT22;11536;50.860;4.286;2023-02-11T13:14:04;9.70;99.90
22738;DHT22;11536;50.860;4.286;2023-02-11T13:16:35;9.70;99.90
22738;DHT22;11536;50.860;4.286;2023-02-11T13:19:27;9.70;99.90
22738;DHT22;11536;50.860;4.286;2023-02-11T13:26:18;9.70;99.90
22738;DHT22;11536;50.860;4.286;2023-02-11T13:28:19;9.70;99.90
22738;DHT22;11536;50.860;4.286;2023-02-11T13:30:47;9.70;99.90
22738;DHT22;11536;50.860;4.286;2023-02-11T13:33:31;9.70;99.90
22738;DHT22;11536;50.860;4.286;2023-02-11T13:38:25;9.80;99.90
22738;DHT22;11536;50.860;4.286;2023-02-11T13:43:27;9.90;99.90
22738;DHT22;11536;50.860;4.286;2023-02-11T13:45:59;9.80;99.90
22738;DHT22;11536;50.860;4.286;2023-02-11T13:48:30;9.80;99.90
22738;DHT22;11536;50.860;4.286;2023-02-11T13:53:30;9.90;99.90
22738;DHT22;11536;50.860;4.286;2023-02-11T13:56:11;9.90;99.90
22738;DHT22;11536;50.860;4.286;2023-02-11T13:58:49;10.00;99.90
22738;DHT22;11536;50.860;4.286;2023-02-11T14:04:22;10.00;99.90
22738;DHT22;11536;50.860;4.286;2023-02-11T14:07:25;9.90;99.90
22738;DHT22;11536;50.860;4.286;2023-02-11T14:13:29;10.00;99.90
22738;DHT22;11536;50.860;4.286;2023-02-11T14:16:08;10.00;99.90
22738;DHT22;11536;50.860;4.286;2023-02-11T14:18:57;10.00;99.90
22738;DHT22;11536;50.860;4.286;2023-02-11T14:21:31;10.00;99.90
22738;DHT22;11536;50.860;4.286;2023-02-11T14:26:46;10.10;99.90
22738;DHT22;11536;50.860;4.286;2023-02-11T14:29:34;10.10;99.90
22738;DHT22;11536;50.860;4.286;2023-02-11T14:32:27;10.10;99.90
22738;DHT22;11536;50.860;4.286;2023-02-11T14:37:59;10.00;99.90
22738;DHT22;11536;50.860;4.286;2023-02-11T14:40:57;10.10;99.90
22738;DHT22;11536;50.860;4.286;2023-02-11T14:43:29;10.10;99.90
22738;DHT22;11536;50.860;4.286;2023-02-11T14:45:56;10.20;99.90
22738;DHT22;11536;50.860;4.286;2023-02-11T14:48:47;10.10;99.90
22738;DHT22;11536;50.860;4.286;2023-02-11T14:51:24;10.10;99.90
22738;DHT22;11536;50.860;4.286;2023-02-11T14:54:00;10.10;99.90
22738;DHT22;11536;50.860;4.286;2023-02-11T14:56:30;10.10;99.90
22738;DHT22;11536;50.860;4.286;2023-02-11T14:58:59;10.20;99.90
22738;DHT22;11536;50.860;4.286;2023-02-11T15:03:58;10.20;99.90
22738;DHT22;11536;50.860;4.286;2023-02-11T15:06:32;10.20;99.90
22738;DHT22;11536;50.860;4.286;2023-02-11T15:09:15;10.20;99.90
22738;DHT22;11536;50.860;4.286;2023-02-11T15:11:46;10.20;99.90
22738;DHT22;11536;50.860;4.286;2023-02-11T15:14:23;10.20;99.90
22738;DHT22;11536;50.860;4.286;2023-02-11T15:16:51;10.20;99.90
22738;DHT22;11536;50.860;4.286;2023-02-11T15:21:47;10.30;99.90
22738;DHT22;11536;50.860;4.286;2023-02-11T15:24:29;10.20;99.90
22738;DHT22;11536;50.860;4.286;2023-02-11T15:30:07;10.20;99.90
22738;DHT22;11536;50.860;4.286;2023-02-11T15:32:24;10.20;99.90
22738;DHT22;11536;50.860;4.286;2023-02-11T15:34:54;10.20;99.90
22738;DHT22;11536;50.860;4.286;2023-02-11T15:37:25;10.20;99.90
22738;DHT22;11536;50.860;4.286;2023-02-11T15:39:52;10.20;99.90
22738;DHT22;11536;50.860;4.286;2023-02-11T15:42:29;10.20;99.90
22738;DHT22;11536;50.860;4.286;2023-02-11T15:45:09;10.20;99.90
22738;DHT22;11536;50.860;4.286;2023-02-11T15:47:36;10.20;99.90
22738;DHT22;11536;50.860;4.286;2023-02-11T15:50:02;10.20;99.90
22738;DHT22;11536;50.860;4.286;2023-02-11T15:52:29;10.20;99.90
22738;DHT22;11536;50.860;4.286;2023-02-11T15:54:57;10.30;99.90
22738;DHT22;11536;50.860;4.286;2023-02-11T15:57:25;10.30;99.90
22738;DHT22;11536;50.860;4.286;2023-02-11T15:59:52;10.30;99.90
22738;DHT22;11536;50.860;4.286;2023-02-11T16:05:04;10.30;99.90
22738;DHT22;11536;50.860;4.286;2023-02-11T16:10:33;10.30;99.90
22738;DHT22;11536;50.860;4.286;2023-02-11T16:13:17;10.30;99.90
22738;DHT22;11536;50.860;4.286;2023-02-11T16:15:57;10.30;99.90
22738;DHT22;11536;50.860;4.286;2023-02-11T16:18:28;10.20;99.90
22738;DHT22;11536;50.860;4.286;2023-02-11T16:20:54;10.20;99.90
22738;DHT22;11536;50.860;4.286;2023-02-11T16:23:30;10.30;99.90
22738;DHT22;11536;50.860;4.286;2023-02-11T16:26:07;10.20;99.90
22738;DHT22;11536;50.860;4.286;2023-02-11T16:28:35;10.20;99.90
22738;DHT22;11536;50.860;4.286;2023-02-11T16:31:02;10.20;99.90
22738;DHT22;11536;50.860;4.286;2023-02-11T16:33:28;10.30;99.90
22738;DHT22;11536;50.860;4.286;2023-02-11T16:35:54;10.20;99.90
22738;DHT22;11536;50.860;4.286;2023-02-11T16:38:20;10.20;99.90
22738;DHT22;11536;50.860;4.286;2023-02-11T16:40:46;10.20;99.90
22738;DHT22;11536;50.860;4.286;2023-02-11T16:43:18;10.20;99.90
22738;DHT22;11536;50.860;4.286;2023-02-11T16:45:44;10.20;99.90
22738;DHT22;11536;50.860;4.286;2023-02-11T16:48:14;10.20;99.90
22738;DHT22;11536;50.860;4.286;2023-02-11T16:50:44;10.20;99.90
22738;DHT22;11536;50.860;4.286;2023-02-11T16:53:11;10.20;99.90
22738;DHT22;11536;50.860;4.286;2023-02-11T16:55:38;10.20;99.90
22738;DHT22;11536;50.860;4.286;2023-02-11T16:58:03;10.20;99.90
22738;DHT22;11536;50.860;4.286;2023-02-11T17:00:30;10.20;99.90
22738;DHT22;11536;50.860;4.286;2023-02-11T17:02:56;10.10;99.90
22738;DHT22;11536;50.860;4.286;2023-02-11T17:05:22;10.10;99.90
22738;DHT22;11536;50.860;4.286;2023-02-11T17:07:50;10.20;99.90
22738;DHT22;11536;50.860;4.286;2023-02-11T17:10:19;10.20;99.90
22738;DHT22;11536;50.860;4.286;2023-02-11T17:12:45;10.10;99.90
22738;DHT22;11536;50.860;4.286;2023-02-11T17:15:11;10.10;99.90
22738;DHT22;11536;50.860;4.286;2023-02-11T17:17:36;10.10;99.90
22738;DHT22;11536;50.860;4.286;2023-02-11T17:20:02;10.10;99.90
22738;DHT22;11536;50.860;4.286;2023-02-11T17:22:28;10.10;99.90
22738;DHT22;11536;50.860;4.286;2023-02-11T17:24:53;10.10;99.90
22738;DHT22;11536;50.860;4.286;2023-02-11T17:27:22;10.10;99.90
22738;DHT22;11536;50.860;4.286;2023-02-11T17:29:48;10.10;99.90
22738;DHT22;11536;50.860;4.286;2023-02-11T17:32:14;10.20;99.90
22738;DHT22;11536;50.860;4.286;2023-02-11T17:34:39;10.10;99.90
22738;DHT22;11536;50.860;4.286;2023-02-11T17:37:05;10.10;99.90
22738;DHT22;11536;50.860;4.286;2023-02-11T17:39:35;10.10;99.90
22738;DHT22;11536;50.860;4.286;2023-02-11T17:42:01;10.00;99.90
22738;DHT22;11536;50.860;4.286;2023-02-11T17:44:27;10.10;99.90
22738;DHT22;11536;50.860;4.286;2023-02-11T17:46:53;10.10;99.90
22738;DHT22;11536;50.860;4.286;2023-02-11T17:49:18;10.00;99.90
22738;DHT22;11536;50.860;4.286;2023-02-11T17:51:45;10.00;99.90
22738;DHT22;11536;50.860;4.286;2023-02-11T17:54:14;10.00;99.90
22738;DHT22;11536;50.860;4.286;2023-02-11T17:56:40;10.00;99.90
22738;DHT22;11536;50.860;4.286;2023-02-11T17:59:07;10.00;99.90
22738;DHT22;11536;50.860;4.286;2023-02-11T18:01:33;10.00;99.90
22738;DHT22;11536;50.860;4.286;2023-02-11T18:03:59;10.00;99.90
22738;DHT22;11536;50.860;4.286;2023-02-11T18:06:26;10.00;99.90
22738;DHT22;11536;50.860;4.286;2023-02-11T18:08:53;10.00;99.90
22738;DHT22;11536;50.860;4.286;2023-02-11T18:11:22;10.00;99.90
22738;DHT22;11536;50.860;4.286;2023-02-11T18:13:49;10.00;99.90
22738;DHT22;11536;50.860;4.286;2023-02-11T18:16:19;10.00;99.90
22738;DHT22;11536;50.860;4.286;2023-02-11T18:18:45;10.00;99.90
22738;DHT22;11536;50.860;4.286;2023-02-11T18:21:13;10.00;99.90
22738;DHT22;11536;50.860;4.286;2023-02-11T18:23:39;10.00;99.90